createdAt,value
2023-03-10T00:01:44.293Z,99.90
2023-03-10T00:04:12.553Z,99.90
2023-03-10T00:06:41.583Z,99.90
2023-03-10T00:09:12.139Z,99.90
2023-03-10T00:11:39.955Z,99.90
2023-03-10T00:14:08.041Z,99.90
2023-03-10T00:16:35.898Z,99.90
2023-03-10T00:19:05.145Z,99.90
2023-03-10T00:21:33.104Z,99.90
2023-03-10T00:24:00.940Z,99.90
2023-03-10T00:26:29.373Z,99.90
2023-03-10T00:28:57.260Z,99.90
2023-03-10T00:31:26.010Z,99.90
2023-03-10T00:33:53.855Z,99.90
2023-03-10T00:36:23.695Z,99.90
2023-03-10T00:38:51.675Z,99.90
2023-03-10T00:41:20.616Z,99.90
2023-03-10T00:43:48.433Z,99.90
2023-03-10T00:46:16.449Z,99.90
2023-03-10T00:48:44.314Z,99.90
2023-03-10T00:51:12.307Z,99.90
2023-03-10T00:53:41.629Z,99.90
2023-03-10T00:56:11.237Z,99.90
2023-03-10T00:58:39.038Z,99.90
2023-03-10T01:01:11.577Z,99.90
2023-03-10T01:03:39.385Z,99.90
2023-03-10T01:06:07.472Z,99.90
2023-03-10T01:08:35.254Z,99.90
2023-03-10T01:11:04.416Z,99.90
2023-03-10T01:13:32.231Z,99.90
2023-03-10T01:16:00.097Z,99.90
2023-03-10T01:18:27.983Z,99.90
2023-03-10T01:20:55.797Z,99.90
2023-03-10T01:23:24.784Z,99.90
2023-03-10T01:25:52.754Z,99.90
2023-03-10T01:28:21.972Z,99.90
2023-03-10T01:30:49.992Z,99.90
2023-03-10T01:33:18.106Z,99.90
2023-03-10T01:35:46.001Z,99.90
2023-03-10T01:38:13.936Z,99.90
2023-03-10T01:40:41.780Z,99.90
2023-03-10T01:43:18.016Z,99.90
2023-03-10T01:46:22.532Z,99.90
2023-03-10T01:48:51.681Z,99.90
2023-03-10T01:51:19.523Z,99.90
2023-03-10T01:53:47.307Z,99.90
2023-03-10T01:56:15.131Z,99.90
2023-03-10T01:58:45.106Z,99.90
2023-03-10T02:01:13.026Z,99.90
2023-03-10T02:03:42.931Z,99.90
2023-03-10T02:06:12.912Z,99.90
2023-03-10T02:08:44.280Z,99.90
2023-03-10T02:11:12.556Z,99.90
2023-03-10T02:13:40.462Z,99.90
2023-03-10T02:16:08.669Z,99.90
2023-03-10T02:18:36.471Z,99.90
2023-03-10T02:21:07.722Z,99.90
2023-03-10T02:23:45.070Z,99.90
2023-03-10T02:26:18.480Z,99.90
2023-03-10T02:28:47.629Z,99.90
2023-03-10T02:31:15.474Z,99.90
2023-03-10T02:33:44.340Z,99.90
2023-03-10T02:36:14.351Z,99.90
2023-03-10T02:38:42.235Z,99.90
2023-03-10T02:41:15.106Z,99.90
2023-03-10T02:43:42.894Z,99.90
2023-03-10T02:46:12.117Z,99.90
2023-03-10T02:48:40.128Z,99.90
2023-03-10T02:51:09.260Z,99.90
2023-03-10T02:53:37.054Z,99.90
2023-03-10T02:56:05.092Z,99.90
2023-03-10T02:58:47.858Z,99.90
2023-03-10T03:01:17.040Z,99.90
2023-03-10T03:03:44.811Z,99.90
2023-03-10T03:06:12.653Z,99.90
2023-03-10T03:08:41.297Z,99.90
2023-03-10T03:11:09.084Z,99.90
2023-03-10T03:13:36.810Z,99.90
2023-03-10T03:16:06.726Z,99.90
2023-03-10T03:18:35.894Z,99.90
2023-03-10T03:21:06.067Z,99.90
2023-03-10T03:23:34.233Z,99.90
2023-03-10T03:26:01.983Z,99.90
2023-03-10T03:28:30.019Z,99.90
2023-03-10T03:30:57.769Z,99.90
2023-03-10T03:33:25.530Z,99.90
2023-03-10T03:35:54.658Z,99.90
2023-03-10T03:38:22.404Z,99.90
2023-03-10T03:40:50.171Z,99.90
2023-03-10T03:43:17.906Z,99.90
2023-03-10T03:45:45.653Z,99.90
2023-03-10T03:48:14.030Z,99.90
2023-03-10T03:50:41.802Z,99.90
2023-03-10T03:53:10.867Z,99.90
2023-03-10T03:55:38.601Z,99.90
2023-03-10T03:58:06.380Z,99.90
2023-03-10T04:00:35.528Z,99.90
2023-03-10T04:03:03.289Z,99.90
2023-03-10T04:05:31.557Z,99.90
2023-03-10T04:07:59.354Z,99.90
2023-03-10T04:10:29.153Z,99.90
2023-03-10T04:12:56.999Z,99.90
2023-03-10T04:15:24.875Z,99.90
2023-03-10T04:17:52.699Z,99.90
2023-03-10T04:20:20.662Z,99.90
2023-03-10T04:22:48.473Z,99.90
2023-03-10T04:25:16.265Z,99.90
2023-03-10T04:27:45.484Z,99.90
2023-03-10T04:30:14.121Z,99.90
2023-03-10T04:32:42.117Z,99.90
2023-03-10T04:35:12.710Z,99.90
2023-03-10T04:37:40.958Z,99.90
2023-03-10T04:40:11.485Z,99.90
2023-03-10T04:42:39.307Z,99.90
2023-03-10T04:45:09.844Z,99.90
2023-03-10T04:47:37.662Z,99.90
2023-03-10T04:50:06.286Z,99.90
2023-03-10T04:52:34.164Z,99.90
2023-03-10T04:55:01.993Z,99.90
2023-03-10T04:57:29.808Z,99.90
2023-03-10T04:59:57.639Z,99.90
2023-03-10T05:02:26.791Z,99.90
2023-03-10T05:04:54.575Z,99.90
2023-03-10T05:07:22.614Z,99.90
2023-03-10T05:09:50.430Z,99.90
2023-03-10T05:12:18.241Z,99.90
2023-03-10T05:14:46.056Z,99.90
2023-03-10T05:17:13.859Z,99.90
2023-03-10T05:19:43.039Z,99.90
2023-03-10T05:22:12.558Z,99.90
2023-03-10T05:24:40.652Z,99.90
2023-03-10T05:27:08.960Z,99.90
2023-03-10T05:29:38.705Z,99.90
2023-03-10T05:32:07.291Z,99.90
2023-03-10T05:34:35.126Z,99.90
2023-03-10T05:37:04.362Z,99.90
2023-03-10T05:39:32.201Z,99.90
2023-03-10T05:42:00.089Z,99.90
2023-03-10T05:44:27.918Z,99.90
2023-03-10T05:46:55.817Z,99.90
2023-03-10T05:49:23.681Z,99.90
2023-03-10T05:51:52.757Z,99.90
2023-03-10T05:54:21.996Z,99.90
2023-03-10T05:56:49.871Z,99.90
2023-03-10T05:59:17.849Z,99.90
2023-03-10T06:01:45.650Z,99.90
2023-03-10T06:04:13.533Z,99.90
2023-03-10T06:06:41.407Z,99.90
2023-03-10T06:09:09.215Z,99.90
2023-03-10T06:11:38.385Z,99.90
2023-03-10T06:14:06.197Z,99.90
2023-03-10T06:16:34.162Z,99.90
2023-03-10T06:19:02.081Z,99.90
2023-03-10T06:21:29.886Z,99.90
2023-03-10T06:23:57.769Z,99.90
2023-03-10T06:26:25.660Z,99.90
2023-03-10T06:28:54.874Z,99.90
2023-03-10T06:31:24.384Z,99.90
2023-03-10T06:33:52.278Z,99.90
2023-03-10T06:36:20.312Z,99.90
2023-03-10T06:38:48.248Z,99.90
2023-03-10T06:41:16.398Z,99.90
2023-03-10T06:43:44.252Z,99.90
2023-03-10T06:46:14.078Z,99.90
2023-03-10T06:48:42.438Z,99.90
2023-03-10T06:51:11.642Z,99.90
2023-03-10T06:53:39.436Z,99.90
2023-03-10T06:56:08.615Z,99.90
2023-03-10T06:58:37.512Z,99.90
2023-03-10T07:01:05.736Z,99.90
2023-03-10T07:03:34.976Z,99.90
2023-03-10T07:06:02.795Z,99.90
2023-03-10T07:08:30.756Z,99.90
2023-03-10T07:10:58.571Z,99.90
2023-03-10T07:13:26.403Z,99.90
2023-03-10T07:15:54.219Z,99.90
2023-03-10T07:18:22.423Z,99.90
2023-03-10T07:20:53.035Z,99.90
2023-03-10T07:23:20.867Z,99.90
2023-03-10T07:25:52.712Z,99.90
2023-03-10T07:28:20.780Z,99.90
2023-03-10T07:30:49.318Z,99.90
2023-03-10T07:33:17.297Z,99.90
2023-03-10T07:35:45.864Z,99.90
2023-03-10T07:38:15.043Z,99.90
2023-03-10T07:40:42.860Z,99.90
2023-03-10T07:43:10.683Z,99.90
2023-03-10T07:45:38.966Z,99.90
2023-03-10T07:48:07.250Z,99.90
2023-03-10T07:50:35.067Z,99.90
2023-03-10T07:53:02.859Z,99.90
2023-03-10T07:55:32.008Z,99.90
2023-03-10T07:58:00.478Z,99.90
2023-03-10T08:00:28.535Z,99.90
2023-03-10T08:02:56.397Z,99.90
2023-03-10T08:05:24.275Z,99.90
2023-03-10T08:07:52.211Z,99.90
2023-03-10T08:10:20.234Z,99.90
2023-03-10T08:12:49.460Z,99.90
2023-03-10T08:15:17.486Z,99.90
2023-03-10T08:17:45.283Z,99.90
2023-03-10T08:20:13.721Z,99.90
2023-03-10T08:22:41.513Z,99.90
2023-03-10T08:25:10.116Z,99.90
2023-03-10T08:27:37.980Z,99.90
2023-03-10T08:30:08.490Z,99.90
2023-03-10T08:32:36.473Z,99.90
2023-03-10T08:35:05.529Z,99.90
2023-03-10T08:37:33.326Z,99.90
2023-03-10T08:40:01.443Z,99.90
2023-03-10T08:42:29.371Z,99.90
2023-03-10T08:44:57.313Z,99.90
2023-03-10T08:47:29.250Z,99.90
2023-03-10T08:49:58.291Z,99.90
2023-03-10T08:52:26.118Z,99.90
2023-03-10T08:54:53.912Z,99.90
2023-03-10T08:57:22.108Z,99.90
2023-03-10T08:59:51.471Z,99.90
2023-03-10T09:02:21.901Z,99.90
2023-03-10T09:04:51.334Z,99.90
2023-03-10T09:07:19.223Z,99.90
2023-03-10T09:09:47.027Z,99.90
2023-03-10T09:12:14.846Z,99.90
2023-03-10T09:14:42.665Z,99.90
2023-03-10T09:17:11.999Z,99.90
2023-03-10T09:19:40.018Z,99.90
2023-03-10T09:22:09.181Z,99.90
2023-03-10T09:24:36.988Z,99.90
2023-03-10T09:27:04.904Z,99.90
2023-03-10T09:29:43.037Z,99.90
2023-03-10T09:32:11.257Z,99.90
2023-03-10T09:34:39.234Z,99.90
2023-03-10T09:37:08.676Z,99.90
2023-03-10T09:39:37.882Z,97.40
2023-03-10T09:42:29.101Z,95.50
2023-03-10T09:45:24.432Z,94.80
2023-03-10T09:48:06.077Z,75.00
2023-03-10T09:50:35.314Z,69.80
2023-03-10T09:53:07.925Z,49.10
2023-03-10T09:55:47.544Z,53.70
2023-03-10T09:58:19.269Z,57.40
2023-03-10T10:00:47.071Z,47.60
2023-03-10T10:03:18.814Z,70.20
2023-03-10T10:05:46.828Z,57.40
2023-03-10T10:08:19.346Z,73.50
2023-03-10T10:10:49.452Z,90.40
2023-03-10T10:13:17.462Z,90.50
2023-03-10T10:15:46.428Z,96.10
2023-03-10T10:18:20.206Z,99.90
2023-03-10T10:20:50.561Z,99.90
2023-03-10T10:23:22.930Z,99.90
2023-03-10T10:25:52.102Z,99.90
2023-03-10T10:28:22.651Z,99.90
2023-03-10T10:30:50.566Z,99.90
2023-03-10T10:33:18.663Z,99.90
2023-03-10T10:35:47.371Z,99.90
2023-03-10T10:38:26.270Z,99.90
2023-03-10T10:41:01.671Z,99.90
2023-03-10T10:43:29.540Z,99.90
2023-03-10T10:45:58.577Z,99.90
2023-03-10T10:48:39.195Z,99.90
2023-03-10T10:51:10.510Z,99.90
2023-03-10T10:53:38.367Z,99.90
2023-03-10T10:56:14.415Z,99.90
2023-03-10T10:58:42.743Z,99.90
2023-03-10T11:01:12.463Z,99.90
2023-03-10T11:03:40.900Z,99.90
2023-03-10T11:06:16.113Z,99.90
2023-03-10T11:08:50.652Z,99.90
2023-03-10T11:11:23.339Z,99.90
2023-03-10T11:14:05.198Z,99.90
2023-03-10T11:16:36.099Z,99.90
2023-03-10T11:19:08.405Z,99.90
2023-03-10T11:21:37.590Z,99.90
2023-03-10T11:24:08.767Z,99.90
2023-03-10T11:26:45.640Z,99.90
2023-03-10T11:29:19.617Z,99.90
2023-03-10T11:31:50.579Z,99.90
2023-03-10T11:34:22.355Z,99.90
2023-03-10T11:36:57.109Z,99.90
2023-03-10T11:39:29.263Z,99.90
2023-03-10T11:42:01.035Z,99.90
2023-03-10T11:44:30.713Z,99.90
2023-03-10T11:47:01.894Z,99.90
2023-03-10T11:49:31.572Z,99.90
2023-03-10T11:52:00.780Z,99.90
2023-03-10T11:54:30.237Z,99.90
2023-03-10T11:56:59.626Z,99.90
2023-03-10T11:59:27.891Z,99.90
2023-03-10T12:01:57.026Z,99.90
2023-03-10T12:04:26.292Z,99.90
2023-03-10T12:06:56.043Z,99.90
2023-03-10T12:09:31.227Z,99.90
2023-03-10T12:12:00.507Z,99.90
2023-03-10T12:14:28.314Z,99.90
2023-03-10T12:16:56.123Z,99.90
2023-03-10T12:19:23.960Z,99.90
2023-03-10T12:22:33.664Z,99.90
2023-03-10T12:25:01.453Z,99.90
2023-03-10T12:27:30.577Z,99.90
2023-03-10T12:29:58.366Z,99.90
2023-03-10T12:32:47.404Z,99.90
2023-03-10T12:35:37.911Z,99.90
2023-03-10T12:38:32.184Z,99.90
2023-03-10T12:41:00.040Z,99.90
2023-03-10T12:44:04.461Z,99.90
2023-03-10T12:46:45.022Z,99.90
2023-03-10T12:49:22.828Z,99.90
2023-03-10T12:51:52.946Z,99.90
2023-03-10T12:54:38.676Z,99.90
2023-03-10T12:57:09.949Z,99.90
2023-03-10T12:59:40.703Z,99.90
2023-03-10T13:02:27.855Z,99.90
2023-03-10T13:04:59.983Z,99.90
2023-03-10T13:07:27.784Z,99.90
2023-03-10T13:09:55.608Z,99.90
2023-03-10T13:12:27.774Z,99.90
2023-03-10T13:14:57.246Z,99.90
2023-03-10T13:17:27.488Z,99.90
2023-03-10T13:20:05.647Z,99.90
2023-03-10T13:22:33.743Z,99.90
2023-03-10T13:25:03.198Z,99.90
2023-03-10T13:27:32.755Z,99.90
2023-03-10T13:30:03.284Z,99.90
2023-03-10T13:32:33.406Z,99.90
2023-03-10T13:35:13.804Z,99.90
2023-03-10T13:37:41.649Z,99.90
2023-03-10T13:40:10.947Z,99.90
2023-03-10T13:42:44.300Z,99.90
2023-03-10T13:45:21.778Z,99.90
2023-03-10T13:47:50.981Z,99.90
2023-03-10T13:50:19.024Z,99.90
2023-03-10T13:52:53.490Z,99.90
2023-03-10T13:55:21.353Z,99.90
2023-03-10T13:57:49.189Z,99.90
2023-03-10T14:00:18.285Z,99.90
2023-03-10T14:02:46.059Z,99.90
2023-03-10T14:08:07.748Z,99.90
2023-03-10T14:10:35.546Z,99.90
2023-03-10T14:13:03.339Z,99.90
2023-03-10T14:15:36.923Z,99.90
2023-03-10T14:18:22.796Z,99.90
2023-03-10T14:20:50.598Z,99.90
2023-03-10T14:23:27.880Z,99.90
2023-03-10T14:25:56.986Z,99.90
2023-03-10T14:28:26.123Z,99.90
2023-03-10T14:30:54.112Z,99.90
2023-03-10T14:33:22.652Z,99.90
2023-03-10T14:35:50.854Z,99.90
2023-03-10T14:38:18.922Z,99.90
2023-03-10T14:40:48.878Z,99.90
2023-03-10T14:43:17.651Z,99.90
2023-03-10T14:45:45.657Z,99.90
2023-03-10T14:48:14.722Z,99.90
2023-03-10T14:50:42.720Z,99.90
2023-03-10T14:53:10.723Z,99.90
2023-03-10T14:55:38.568Z,99.90
2023-03-10T14:58:07.782Z,99.90
2023-03-10T15:00:35.806Z,99.90
2023-03-10T15:03:06.242Z,99.90
2023-03-10T15:05:47.228Z,99.90
2023-03-10T15:08:16.033Z,99.90
2023-03-10T15:10:46.576Z,99.90
2023-03-10T15:13:15.927Z,99.90
2023-03-10T15:15:44.871Z,99.90
2023-03-10T15:18:13.802Z,99.90
2023-03-10T15:20:41.680Z,99.90
2023-03-10T15:23:09.973Z,99.90
2023-03-10T15:25:37.938Z,99.90
2023-03-10T15:28:05.901Z,99.90
2023-03-10T15:30:35.963Z,99.90
2023-03-10T15:33:03.954Z,99.90
2023-03-10T15:35:31.874Z,99.90
2023-03-10T15:37:59.846Z,99.90
2023-03-10T15:40:28.630Z,99.90
2023-03-10T15:42:57.470Z,99.90
2023-03-10T15:45:25.560Z,99.90
2023-03-10T15:47:54.805Z,99.90
2023-03-10T15:50:22.748Z,99.90
2023-03-10T15:52:51.383Z,99.90
2023-03-10T15:55:19.420Z,99.90
2023-03-10T15:57:49.859Z,99.90
2023-03-10T16:00:18.774Z,99.90
2023-03-10T16:02:46.626Z,99.90
2023-03-10T16:05:15.903Z,99.90
2023-03-10T16:07:43.783Z,99.90
2023-03-10T16:10:12.696Z,99.90
2023-03-10T16:12:40.618Z,99.90
2023-03-10T16:15:09.761Z,99.90
2023-03-10T16:17:37.640Z,99.90
2023-03-10T16:20:11.742Z,99.90
2023-03-10T16:22:42.860Z,99.90
2023-03-10T16:25:13.141Z,99.90
2023-03-10T16:27:40.991Z,99.90
2023-03-10T16:30:10.916Z,99.90
2023-03-10T16:32:38.912Z,99.90
2023-03-10T16:35:08.071Z,99.90
2023-03-10T16:37:35.938Z,99.90
2023-03-10T16:40:07.218Z,99.90
2023-03-10T16:42:36.349Z,99.90
2023-03-10T16:45:04.411Z,99.90
2023-03-10T16:47:32.417Z,99.90
2023-03-10T16:50:00.232Z,99.90
2023-03-10T16:52:28.125Z,99.90
2023-03-10T16:54:58.059Z,99.90
2023-03-10T16:57:27.354Z,99.90
2023-03-10T16:59:55.194Z,99.90
2023-03-10T17:02:23.099Z,99.90
2023-03-10T17:04:50.948Z,99.90
2023-03-10T17:07:19.296Z,99.90
2023-03-10T17:09:47.125Z,99.90
2023-03-10T17:12:15.005Z,99.90
2023-03-10T17:14:44.224Z,99.90
2023-03-10T17:17:12.155Z,99.90
2023-03-10T17:19:40.050Z,99.90
2023-03-10T17:22:08.017Z,99.90
2023-03-10T17:24:35.879Z,99.90
2023-03-10T17:27:03.967Z,99.90
2023-03-10T17:29:31.866Z,99.90
2023-03-10T17:32:01.037Z,99.90
2023-03-10T17:34:29.376Z,99.90
2023-03-10T17:36:57.251Z,99.90
2023-03-10T17:39:27.616Z,99.90
2023-03-10T17:41:55.480Z,99.90
2023-03-10T17:44:23.302Z,99.90
2023-03-10T17:46:52.539Z,99.90
2023-03-10T17:49:21.753Z,99.90
2023-03-10T17:51:49.729Z,99.90
2023-03-10T17:54:20.088Z,99.90
2023-03-10T17:56:48.101Z,99.90
2023-03-10T17:59:16.286Z,99.90
2023-03-10T18:01:44.742Z,99.90
2023-03-10T18:04:12.746Z,99.90
2023-03-10T18:06:41.937Z,99.90
2023-03-10T18:09:12.624Z,99.90
2023-03-10T18:11:40.454Z,99.90
2023-03-10T18:14:08.393Z,99.90
2023-03-10T18:16:37.981Z,99.90
2023-03-10T18:19:05.862Z,99.90
2023-03-10T18:21:33.710Z,99.90
2023-03-10T18:24:03.555Z,99.90
2023-03-10T18:26:31.589Z,99.90
2023-03-10T18:28:59.537Z,99.90
2023-03-10T18:31:28.203Z,99.90
2023-03-10T18:33:56.077Z,99.90
2023-03-10T18:36:24.649Z,99.90
2023-03-10T18:38:52.711Z,99.90
2023-03-10T18:41:22.605Z,99.90
2023-03-10T18:43:50.521Z,99.90
2023-03-10T18:46:18.460Z,99.90
2023-03-10T18:48:46.334Z,99.90
2023-03-10T18:51:14.589Z,99.90
2023-03-10T18:53:42.841Z,99.90
2023-03-10T18:56:11.249Z,99.90
2023-03-10T18:58:40.459Z,99.90
2023-03-10T19:01:11.131Z,99.90
2023-03-10T19:03:39.164Z,99.90
2023-03-10T19:06:07.675Z,99.90
2023-03-10T19:08:35.948Z,99.90
2023-03-10T19:11:03.869Z,99.90
2023-03-10T19:13:31.709Z,99.90
2023-03-10T19:16:00.938Z,99.90
2023-03-10T19:18:28.806Z,99.90
2023-03-10T19:20:59.833Z,99.90
2023-03-10T19:23:27.827Z,99.90
2023-03-10T19:25:55.830Z,99.90
2023-03-10T19:28:23.790Z,99.90
2023-03-10T19:30:51.637Z,99.90
2023-03-10T19:33:20.824Z,99.90
2023-03-10T19:35:48.781Z,99.90
2023-03-10T19:38:16.646Z,99.90
2023-03-10T19:40:46.962Z,99.90
2023-03-10T19:43:14.790Z,99.90
2023-03-10T19:45:42.629Z,99.90
2023-03-10T19:48:10.456Z,99.90
2023-03-10T19:50:39.675Z,99.90
2023-03-10T19:53:07.487Z,99.90
2023-03-10T19:55:36.401Z,99.90
2023-03-10T19:58:04.225Z,99.90
2023-03-10T20:00:36.001Z,99.90
2023-03-10T20:03:04.289Z,99.90
2023-03-10T20:05:33.035Z,99.90
2023-03-10T20:08:02.423Z,99.90
2023-03-10T20:10:30.286Z,99.90
2023-03-10T20:12:58.763Z,99.90
2023-03-10T20:15:26.630Z,99.90
2023-03-10T20:17:54.462Z,99.90
2023-03-10T20:20:22.502Z,99.90
2023-03-10T20:22:50.437Z,99.90
2023-03-10T20:25:20.519Z,99.90
2023-03-10T20:27:49.011Z,99.90
2023-03-10T20:30:18.240Z,99.90
2023-03-10T20:32:46.165Z,99.90
2023-03-10T20:35:14.200Z,99.90
2023-03-10T20:37:42.059Z,99.90
2023-03-10T20:40:11.143Z,99.90
2023-03-10T20:42:40.329Z,99.90
2023-03-10T20:45:09.438Z,99.90
2023-03-10T20:47:37.509Z,99.90
2023-03-10T20:50:06.710Z,99.90
2023-03-10T20:52:35.273Z,99.90
2023-03-10T20:55:03.150Z,99.90
2023-03-10T20:57:30.978Z,99.90
2023-03-10T21:00:00.595Z,99.90
2023-03-10T21:02:28.435Z,99.90
2023-03-10T21:04:56.483Z,99.90
2023-03-10T21:07:24.329Z,99.90
2023-03-10T21:09:52.167Z,99.90
2023-03-10T21:12:21.123Z,99.90
2023-03-10T21:14:48.984Z,99.90
2023-03-10T21:17:18.286Z,99.90
2023-03-10T21:19:46.123Z,99.90
2023-03-10T21:22:13.968Z,99.90
2023-03-10T21:24:41.807Z,99.90
2023-03-10T21:27:10.049Z,99.90
2023-03-10T21:29:37.884Z,99.90
2023-03-10T21:32:05.898Z,99.90
2023-03-10T21:34:35.092Z,99.90
2023-03-10T21:37:02.946Z,99.90
2023-03-10T21:39:30.757Z,99.90
2023-03-10T21:41:58.607Z,99.90
2023-03-10T21:44:26.603Z,99.90
2023-03-10T21:46:54.456Z,99.90
2023-03-10T21:49:22.309Z,99.90
2023-03-10T21:51:51.546Z,99.90
2023-03-10T21:54:19.435Z,99.90
2023-03-10T21:56:47.436Z,99.90
2023-03-10T21:59:16.584Z,99.90
2023-03-10T22:01:44.456Z,99.90
2023-03-10T22:04:12.598Z,99.90
2023-03-10T22:06:40.475Z,99.90
2023-03-10T22:09:09.660Z,99.90
2023-03-10T22:11:37.544Z,99.90
2023-03-10T22:14:05.427Z,99.90
2023-03-10T22:16:33.260Z,99.90
2023-03-10T22:19:01.104Z,99.90
2023-03-10T22:21:28.931Z,99.90
2023-03-10T22:23:56.775Z,99.90
2023-03-10T22:26:25.939Z,99.90
2023-03-10T22:28:53.879Z,99.90
2023-03-10T22:31:22.271Z,99.90
2023-03-10T22:33:50.151Z,99.90
2023-03-10T22:36:18.880Z,99.90
2023-03-10T22:38:46.710Z,99.90
2023-03-10T22:41:14.527Z,99.90
2023-03-10T22:43:43.739Z,99.90
2023-03-10T22:46:11.970Z,99.90
2023-03-10T22:48:40.012Z,99.90
2023-03-10T22:51:08.881Z,99.90
2023-03-10T22:53:38.122Z,99.90
2023-03-10T22:56:06.357Z,99.90
2023-03-10T22:58:34.194Z,99.90
2023-03-10T23:01:03.374Z,99.90
2023-03-10T23:03:32.055Z,99.90
2023-03-10T23:06:01.688Z,99.90
2023-03-10T23:08:29.606Z,99.90
2023-03-10T23:10:57.424Z,99.90
2023-03-10T23:13:25.258Z,99.90
2023-03-10T23:15:53.103Z,99.90
2023-03-10T23:18:22.402Z,99.90
2023-03-10T23:20:50.322Z,99.90
2023-03-10T23:23:19.047Z,99.90
2023-03-10T23:25:47.819Z,99.90
2023-03-10T23:28:16.248Z,99.90
2023-03-10T23:30:44.626Z,99.90
2023-03-10T23:33:13.088Z,99.90
2023-03-10T23:35:42.321Z,99.90
2023-03-10T23:38:10.165Z,99.90
2023-03-10T23:40:38.074Z,99.90
2023-03-10T23:43:06.839Z,99.90
2023-03-10T23:45:35.931Z,99.90
2023-03-10T23:48:04.723Z,99.90
2023-03-10T23:50:33.667Z,99.90
2023-03-10T23:53:03.086Z,99.90
2023-03-10T23:55:33.026Z,99.90
2023-03-10T23:58:00.876Z,99.90
